Time;durP1;ratioP1;P1;durP2;ratioP2;P2;SDS_P1;SDS_P2;PMS_P1;PMS_P2;Temp;Humidity;BMP_temperature;BMP_pressure;BME280_temperature;BME280_humidity;BME280_pressure;Samples;Min_cycle;Max_cycle;Signal;HPM_P1;HPM_P2
2022/05/02 00:00:16;;;;;;;7.85;7.05;;;;;;;6.00;100.00;95990.50;4999747;28;24794;-72
2022/05/02 00:02:42;;;;;;;7.15;6.55;;;;;;;6.03;100.00;95990.38;4992425;28;24502;-72
2022/05/02 00:05:09;;;;;;;9.98;7.45;;;;;;;6.00;100.00;95985.38;5011110;28;24432;-72
2022/05/02 00:07:37;;;;;;;7.68;6.88;;;;;;;6.16;100.00;95983.00;5002255;28;24495;-72
2022/05/02 00:10:04;;;;;;;7.43;6.72;;;;;;;5.94;100.00;95980.50;4994887;28;24480;-72
2022/05/02 00:12:31;;;;;;;8.10;6.70;;;;;;;5.79;100.00;95981.94;5010574;28;24436;-72
2022/05/02 00:14:57;;;;;;;10.37;7.43;;;;;;;5.80;100.00;95987.00;4995939;28;24993;-72
2022/05/02 00:17:56;;;;;;;8.67;7.67;;;;;;;5.73;100.00;95982.16;5011776;28;24573;-72
2022/05/02 00:20:11;;;;;;;7.95;7.15;;;;;;;5.65;100.00;95979.91;4998344;28;24425;-72
2022/05/02 00:22:40;;;;;;;8.43;7.20;;;;;;;5.71;100.00;95982.25;5000315;28;24530;-72
2022/05/02 00:25:08;;;;;;;9.93;8.57;;;;;;;5.78;100.00;95972.53;5011742;28;24527;-72
2022/05/02 00:27:35;;;;;;;10.00;9.02;;;;;;;5.78;100.00;95968.25;4995386;28;24807;-72
2022/05/02 00:30:01;;;;;;;9.13;8.23;;;;;;;5.86;100.00;95962.78;4992380;28;24456;-72
2022/05/02 00:32:28;;;;;;;9.27;8.38;;;;;;;5.90;100.00;95960.94;4998290;28;24436;-72
2022/05/02 00:34:54;;;;;;;9.70;8.70;;;;;;;5.94;100.00;95965.06;5011356;28;24571;-72
2022/05/02 00:37:20;;;;;;;9.95;8.95;;;;;;;5.97;100.00;95965.78;4995159;28;24572;-72
2022/05/02 00:39:48;;;;;;;9.38;8.48;;;;;;;5.97;100.00;95965.78;5008535;28;24436;-72
2022/05/02 00:42:15;;;;;;;9.25;8.23;;;;;;;5.99;100.00;95963.97;4991878;28;24437;-72
2022/05/02 00:44:43;;;;;;;9.00;8.10;;;;;;;5.96;100.00;95956.38;5001719;28;24432;-72
2022/05/02 00:47:09;;;;;;;9.15;8.27;;;;;;;5.97;100.00;95957.22;5011145;28;24527;-72
2022/05/02 00:49:37;;;;;;;12.85;8.45;;;;;;;6.06;100.00;95957.66;4997203;28;24452;-72
2022/05/02 00:52:04;;;;;;;10.85;7.47;;;;;;;6.10;100.00;95963.53;5004035;28;25001;-72
2022/05/02 00:54:31;;;;;;;8.20;7.40;;;;;;;6.12;100.00;95958.31;4991525;28;24440;-73
2022/05/02 00:56:59;;;;;;;8.52;7.70;;;;;;;5.99;100.00;95955.44;5006636;28;24437;-72
2022/05/02 00:59:27;;;;;;;7.97;7.18;;;;;;;5.90;100.00;95948.91;5004365;28;24436;-72
2022/05/02 01:01:54;;;;;;;9.32;7.68;;;;;;;5.83;100.00;95956.03;4990623;28;24439;-72
2022/05/02 01:04:21;;;;;;;7.78;6.95;;;;;;;5.83;100.00;95948.31;5001266;28;24515;-72
2022/05/02 01:09:33;;;;;;;8.80;7.90;;;;;;;5.84;100.00;95956.88;4990741;28;24811;-72
2022/05/02 01:12:00;;;;;;;9.83;8.30;;;;;;;5.72;100.00;95953.06;4999435;28;24439;-72
2022/05/02 01:14:28;;;;;;;14.55;9.15;;;;;;;5.69;100.00;95949.78;5010680;28;24552;-72
2022/05/02 01:16:54;;;;;;;9.20;8.32;;;;;;;5.71;100.00;95950.53;4998842;28;24839;-72
2022/05/02 01:19:20;;;;;;;7.80;7.10;;;;;;;5.75;100.00;95947.81;5010719;28;24575;-72
2022/05/02 01:21:48;;;;;;;9.68;8.50;;;;;;;5.74;100.00;95948.69;5002513;28;24444;-72
2022/05/02 01:24:15;;;;;;;8.40;7.60;;;;;;;5.62;100.00;95944.06;5002670;28;24807;-72
2022/05/02 01:26:41;;;;;;;8.48;7.43;;;;;;;5.57;100.00;95941.66;5010783;28;24444;-72
2022/05/02 01:29:07;;;;;;;7.80;7.05;;;;;;;5.57;100.00;95946.81;4992019;28;24456;-72
2022/05/02 01:31:34;;;;;;;8.13;7.25;;;;;;;5.56;100.00;95936.56;4996737;28;24442;-72
2022/05/02 01:34:01;;;;;;;8.32;6.68;;;;;;;5.52;100.00;95938.44;5001544;28;24433;-72
2022/05/02 01:36:28;;;;;;;8.23;7.40;;;;;;;5.40;100.00;95938.94;5003193;28;24817;-72
2022/05/02 01:38:56;;;;;;;9.80;7.95;;;;;;;5.28;100.00;95940.25;4999230;28;24428;-72
2022/05/02 01:41:22;;;;;;;8.38;7.53;;;;;;;5.22;100.00;95937.91;5010509;28;24432;-72
2022/05/02 01:43:49;;;;;;;9.93;8.73;;;;;;;5.18;100.00;95931.22;5010095;28;24487;-72
2022/05/02 01:46:15;;;;;;;10.20;8.95;;;;;;;5.21;100.00;95935.41;5010493;28;24471;-72
2022/05/02 01:48:42;;;;;;;10.57;9.48;;;;;;;5.31;100.00;95931.59;4994435;28;24433;-72
2022/05/02 01:51:09;;;;;;;10.05;9.05;;;;;;;5.28;100.00;95931.72;5005116;28;24850;-72
2022/05/02 01:53:35;;;;;;;10.77;9.67;;;;;;;5.08;100.00;95928.22;5000807;28;24443;-72
2022/05/02 01:56:03;;;;;;;13.50;9.77;;;;;;;4.99;100.00;95925.16;4997971;28;24823;-72
2022/05/02 01:58:30;;;;;;;10.30;9.40;;;;;;;4.99;100.00;95922.56;4991050;28;24839;-72
2022/05/02 02:00:56;;;;;;;7.72;7.03;;;;;;;4.91;100.00;95917.75;5005231;28;24846;-72
2022/05/02 02:03:23;;;;;;;6.30;5.70;;;;;;;4.90;100.00;95922.94;4994138;28;24440;-72
2022/05/02 02:05:48;;;;;;;6.17;5.60;;;;;;;4.72;100.00;95921.91;5005384;28;24831;-72
2022/05/02 02:08:15;;;;;;;7.50;6.13;;;;;;;4.66;100.00;95925.50;4991219;28;24447;-72
2022/05/02 02:10:41;;;;;;;9.13;7.10;;;;;;;4.63;100.00;95922.22;5002830;28;24526;-72
2022/05/02 02:13:09;;;;;;;7.05;6.45;;;;;;;4.51;100.00;95919.22;5008462;28;24474;-72
2022/05/02 02:15:36;;;;;;;6.60;6.00;;;;;;;4.50;100.00;95917.56;4996272;28;24871;-72
2022/05/02 02:18:02;;;;;;;7.60;5.97;;;;;;;4.44;100.00;95917.78;4990844;28;24444;-72
2022/05/02 02:20:29;;;;;;;5.27;4.63;;;;;;;4.47;100.00;95915.09;5000470;28;24436;-72
2022/05/02 02:22:56;;;;;;;5.20;4.70;;;;;;;4.56;100.00;95916.47;5009913;28;24432;-72
2022/05/02 02:25:23;;;;;;;5.47;4.97;;;;;;;4.65;100.00;95913.59;4993334;28;25045;-72
2022/05/02 02:27:49;;;;;;;4.93;4.53;;;;;;;4.69;100.00;95909.19;5006189;28;24475;-72
2022/05/02 02:30:19;;;;;;;5.05;4.65;;;;;;;4.70;100.00;95911.69;5004232;28;24526;-72
2022/05/02 02:32:45;;;;;;;4.53;4.13;;;;;;;4.71;100.00;95909.94;4999249;28;24441;-71
2022/05/02 02:35:12;;;;;;;4.82;4.38;;;;;;;4.79;100.00;95910.50;5010629;28;24440;-72
2022/05/02 02:37:39;;;;;;;5.70;5.20;;;;;;;4.84;100.00;95903.47;4994283;28;24441;-72
2022/05/02 02:40:09;;;;;;;5.40;4.90;;;;;;;4.81;100.00;95909.53;5002516;28;25060;-72
2022/05/02 02:42:36;;;;;;;5.43;4.93;;;;;;;4.82;100.00;95905.25;5014058;28;24875;-72
2022/05/02 02:45:02;;;;;;;6.35;5.53;;;;;;;4.85;100.00;95910.25;4995010;28;24437;-72
2022/05/02 02:47:30;;;;;;;4.90;4.40;;;;;;;4.88;100.00;95910.16;4996773;28;25016;-72
2022/05/02 02:49:56;;;;;;;4.72;4.32;;;;;;;4.81;100.00;95901.00;5013312;28;24455;-71
2022/05/02 02:52:23;;;;;;;6.00;5.40;;;;;;;4.80;100.00;95897.63;5003296;28;24441;-71
2022/05/02 02:54:49;;;;;;;6.53;5.93;;;;;;;4.65;100.00;95894.81;5001489;28;24807;-71
2022/05/02 02:57:16;;;;;;;7.97;7.03;;;;;;;4.62;100.00;95895.75;5005170;28;24839;-71
2022/05/02 02:59:42;;;;;;;7.65;6.95;;;;;;;4.63;100.00;95891.44;5009388;28;24433;-71
2022/05/02 03:02:09;;;;;;;7.20;6.50;;;;;;;4.64;100.00;95891.41;4999912;28;24463;-71
2022/05/02 03:07:23;;;;;;;11.40;6.57;;;;;;;4.66;100.00;95883.63;4997115;28;25010;-72
2022/05/02 03:09:50;;;;;;;9.20;6.53;;;;;;;4.63;100.00;95879.44;4994905;28;24475;-71
2022/05/02 03:12:16;;;;;;;8.85;7.30;;;;;;;4.56;100.00;95873.75;4993531;28;24511;-71
2022/05/02 03:14:42;;;;;;;7.60;7.00;;;;;;;4.63;100.00;95878.63;5003665;28;24494;-71
2022/05/02 03:17:09;;;;;;;5.75;5.25;;;;;;;4.59;100.00;95868.47;5012846;28;25010;-71
2022/05/02 03:19:38;;;;;;;11.43;6.10;;;;;;;4.56;100.00;95865.19;4995688;28;24436;-72
2022/05/02 03:22:05;;;;;;;7.38;5.88;;;;;;;4.59;100.00;95865.06;4997936;28;24436;-71
2022/05/02 03:24:31;;;;;;;6.10;5.50;;;;;;;4.52;100.00;95869.59;5003536;28;24491;-72
2022/05/02 03:26:58;;;;;;;5.47;5.03;;;;;;;4.49;100.00;95867.16;5005922;28;24842;-71
2022/05/02 03:29:24;;;;;;;6.13;5.53;;;;;;;4.45;100.00;95864.75;5012482;28;24436;-72
2022/05/02 03:31:51;;;;;;;6.85;6.15;;;;;;;4.34;100.00;95862.59;4997062;28;24802;-72
2022/05/02 03:34:17;;;;;;;6.80;6.20;;;;;;;4.28;100.00;95858.53;5012136;28;24440;-72
2022/05/02 03:36:45;;;;;;;6.63;6.03;;;;;;;4.18;100.00;95862.31;5002457;28;24492;-72
2022/05/02 03:39:12;;;;;;;6.38;5.80;;;;;;;4.08;100.00;95859.25;5009432;28;24432;-72
2022/05/02 03:41:38;;;;;;;7.35;6.65;;;;;;;4.08;100.00;95853.31;5011338;28;24439;-72
2022/05/02 03:44:05;;;;;;;6.55;6.00;;;;;;;3.98;100.00;95852.78;4997243;28;24837;-72
2022/05/02 03:46:32;;;;;;;6.90;6.30;;;;;;;3.98;100.00;95850.22;5004331;28;24441;-72
2022/05/02 03:49:00;;;;;;;7.28;5.40;;;;;;;4.13;100.00;95859.09;4992953;28;24433;-72
2022/05/02 03:51:26;;;;;;;8.63;7.55;;;;;;;4.32;100.00;95867.78;5003494;28;24511;-72
2022/05/02 03:53:54;;;;;;;9.73;8.82;;;;;;;4.07;100.00;95852.44;4994605;28;24444;-72
2022/05/02 03:56:21;;;;;;;9.32;8.43;;;;;;;3.94;100.00;95852.94;5011896;28;24444;-72
2022/05/02 03:58:47;;;;;;;9.73;8.43;;;;;;;3.93;100.00;95864.94;5002539;28;25001;-72
2022/05/02 04:01:13;;;;;;;9.93;9.03;;;;;;;3.91;100.00;95859.00;4993101;28;24436;-72
2022/05/02 04:03:40;;;;;;;9.00;8.20;;;;;;;3.93;100.00;95861.50;5007165;28;25209;-72
2022/05/02 04:06:06;;;;;;;10.20;9.20;;;;;;;4.00;100.00;95858.66;5008699;28;24637;-72
2022/05/02 04:08:33;;;;;;;11.23;10.23;;;;;;;3.95;100.00;95858.00;5003833;28;24474;-72
2022/05/02 04:11:00;;;;;;;10.63;9.60;;;;;;;3.91;100.00;95847.94;5000521;28;24510;-72
2022/05/02 04:13:27;;;;;;;10.30;9.43;;;;;;;3.97;100.00;95848.56;4996205;28;24886;-72
2022/05/02 04:15:53;;;;;;;9.52;8.73;;;;;;;4.03;100.00;95853.44;5007447;28;24539;-72
2022/05/02 04:18:20;;;;;;;8.80;8.00;;;;;;;4.10;100.00;95852.34;5008833;28;24488;-72
2022/05/02 04:20:46;;;;;;;10.05;8.27;;;;;;;4.16;100.00;95847.91;5003884;28;24432;-72
2022/05/02 04:23:13;;;;;;;9.93;9.02;;;;;;;4.11;100.00;95851.44;5010694;28;24441;-72
2022/05/02 04:25:39;;;;;;;9.35;8.45;;;;;;;4.11;100.00;95850.59;5010589;28;24432;-72
2022/05/02 04:28:08;;;;;;;9.98;8.93;;;;;;;4.13;100.00;95854.78;5002273;28;24445;-73
2022/05/02 04:30:34;;;;;;;8.73;7.75;;;;;;;4.02;100.00;95856.91;5010692;28;24559;-72
2022/05/02 04:33:01;;;;;;;7.72;7.03;;;;;;;4.10;100.00;95847.22;5011158;28;24622;-73
2022/05/02 04:35:28;;;;;;;9.45;8.52;;;;;;;4.20;100.00;95850.28;4995722;28;24432;-72
2022/05/02 04:37:54;;;;;;;8.55;7.65;;;;;;;4.03;100.00;95850.88;4996879;28;24463;-72
2022/05/02 04:40:21;;;;;;;8.00;7.20;;;;;;;3.88;100.00;95854.81;5009219;28;24855;-72
2022/05/02 04:42:47;;;;;;;8.32;7.40;;;;;;;3.85;100.00;95847.22;5004218;28;24495;-72
2022/05/02 04:45:15;;;;;;;11.80;7.22;;;;;;;3.89;100.00;95845.41;4999233;28;24440;-72
2022/05/02 04:47:42;;;;;;;7.18;6.47;;;;;;;4.03;100.00;95844.91;5010674;28;24977;-72
2022/05/02 04:50:09;;;;;;;7.90;6.68;;;;;;;4.04;100.00;95850.00;5010636;28;25047;-72
2022/05/02 04:52:36;;;;;;;7.20;6.50;;;;;;;4.12;100.00;95854.84;5010861;28;25136;-72
2022/05/02 04:55:02;;;;;;;7.03;6.32;;;;;;;4.10;100.00;95848.94;5011130;28;24439;-72
2022/05/02 04:57:29;;;;;;;7.28;6.57;;;;;;;4.03;100.00;95853.44;5008014;28;24842;-72
2022/05/02 04:59:56;;;;;;;6.63;5.72;;;;;;;4.05;100.00;95854.25;4991903;28;24472;-72
2022/05/02 05:02:23;;;;;;;10.38;6.13;;;;;;;4.06;100.00;95855.06;4991827;28;24440;-72
2022/05/02 05:04:50;;;;;;;6.88;5.95;;;;;;;4.08;100.00;95849.00;5006827;28;24467;-73
2022/05/02 05:07:16;;;;;;;6.63;6.03;;;;;;;4.20;100.00;95854.56;4993908;28;24858;-74
2022/05/02 05:09:44;;;;;;;7.25;6.45;;;;;;;4.24;100.00;95854.41;5000910;28;24487;-74
2022/05/02 05:12:25;;;;;;;7.20;6.50;;;;;;;4.32;100.00;95852.38;4991207;28;24982;-72
2022/05/02 05:18:00;;;;;;;7.83;7.03;;;;;;;4.55;100.00;95860.94;4991687;28;24854;-71
2022/05/02 05:20:35;;;;;;;7.65;6.32;;;;;;;4.72;100.00;95862.91;5002285;28;24436;-71
2022/05/02 05:23:16;;;;;;;6.75;6.15;;;;;;;4.84;100.00;95867.53;5005610;28;25039;-72
2022/05/02 05:25:58;;;;;;;7.78;5.68;;;;;;;4.91;100.00;95858.72;5003975;28;24525;-71
2022/05/02 05:29:06;;;;;;;7.05;6.40;;;;;;;5.12;100.00;95861.31;5007888;28;24531;-72
2022/05/02 05:31:38;;;;;;;10.02;7.55;;;;;;;5.37;100.00;95856.03;4930702;29;24486;-72
2022/05/02 05:34:08;;;;;;;10.68;7.57;;;;;;;5.45;100.00;95856.53;4981081;28;24483;-72
2022/05/02 05:36:58;;;;;;;9.05;8.18;;;;;;;5.59;100.00;95855.06;4994087;28;24514;-72
2022/05/02 05:39:36;;;;;;;10.77;8.10;;;;;;;5.58;100.00;95845.72;5010489;28;24440;-73
2022/05/02 05:42:12;;;;;;;10.23;9.23;;;;;;;5.64;100.00;95854.06;4995650;28;24433;-71
2022/05/02 05:44:51;;;;;;;9.95;7.90;;;;;;;5.54;100.00;95858.75;4991315;28;24437;-71
2022/05/02 05:47:28;;;;;;;8.40;7.45;;;;;;;5.59;100.00;95855.06;4999630;28;24810;-71
2022/05/02 05:50:09;;;;;;;8.65;7.75;;;;;;;5.71;100.00;95852.88;4996482;28;24433;-71
2022/05/02 05:52:46;;;;;;;7.32;6.63;;;;;;;5.79;100.00;95856.00;4993143;28;25026;-72
2022/05/02 05:55:18;;;;;;;8.05;7.07;;;;;;;5.76;100.00;95858.69;5004084;28;24867;-72
2022/05/02 05:57:50;;;;;;;7.27;6.63;;;;;;;5.92;100.00;95846.88;4992193;28;24568;-73
2022/05/02 06:00:18;;;;;;;12.23;6.95;;;;;;;6.00;100.00;95855.06;5000501;28;24827;-74
2022/05/02 06:02:55;;;;;;;7.13;6.43;;;;;;;5.98;100.00;95854.31;5007675;28;24526;-72
2022/05/02 06:05:24;;;;;;;9.75;6.47;;;;;;;5.93;100.00;95851.13;4998889;28;24499;-73
2022/05/02 06:07:53;;;;;;;7.22;6.57;;;;;;;6.17;100.00;95858.66;5004464;28;24437;-71
2022/05/02 06:10:20;;;;;;;7.47;6.50;;;;;;;6.29;100.00;95847.84;4997039;28;24495;-76
2022/05/02 06:12:47;;;;;;;7.60;7.00;;;;;;;6.50;100.00;95852.00;5013709;28;24443;-75
2022/05/02 06:20:47;;;;;;;6.97;6.28;;;;;;;6.95;100.00;95849.97;4998832;28;24487;-74
2022/05/02 06:23:15;;;;;;;6.70;5.95;;;;;;;7.06;100.00;95854.59;5013086;28;24949;-73
2022/05/02 06:25:44;;;;;;;6.63;6.03;;;;;;;7.36;100.00;95850.53;4998001;28;24436;-73
2022/05/02 06:28:11;;;;;;;6.30;5.80;;;;;;;7.55;100.00;95852.22;4996318;28;24437;-74
2022/05/02 06:30:40;;;;;;;6.53;5.72;;;;;;;7.39;100.00;95847.81;5005153;28;25071;-73
2022/05/02 06:33:11;;;;;;;7.25;6.55;;;;;;;7.33;100.00;95847.28;5013512;28;24439;-72
2022/05/02 06:36:00;;;;;;;7.60;6.63;;;;;;;7.29;100.00;95851.75;4994581;28;24633;-72
2022/05/02 06:38:41;;;;;;;6.70;6.20;;;;;;;7.51;100.00;95852.38;4994877;28;24437;-72
2022/05/02 06:41:16;;;;;;;7.30;6.25;;;;;;;7.72;100.00;95847.91;4993865;28;24982;-72
2022/05/02 06:43:50;;;;;;;7.07;6.05;;;;;;;8.06;100.00;95848.75;4993506;28;25013;-72
2022/05/02 06:46:20;;;;;;;7.28;6.60;;;;;;;8.44;100.00;95848.53;5006679;28;20787;-72
2022/05/02 06:48:50;;;;;;;8.13;7.18;;;;;;;8.68;100.00;95848.97;4996853;28;20726;-71
2022/05/02 06:51:23;;;;;;;7.72;6.95;;;;;;;8.95;100.00;95844.06;5013219;28;21279;-70
2022/05/02 06:54:15;;;;;;;8.20;7.35;;;;;;;9.24;100.00;95851.94;5003109;28;20699;-71
2022/05/02 06:56:44;;;;;;;8.25;7.22;;;;;;;9.42;100.00;95846.56;4999118;28;20663;-73
2022/05/02 06:59:32;;;;;;;7.82;6.72;;;;;;;9.67;100.00;95845.13;5001334;28;20773;-73
2022/05/02 07:02:04;;;;;;;9.18;6.93;;;;;;;9.93;100.00;95846.19;5013012;28;20707;-71
2022/05/02 07:04:42;;;;;;;7.88;7.03;;;;;;;10.25;100.00;95840.88;4997099;28;20712;-71
2022/05/02 07:07:28;;;;;;;8.10;6.97;;;;;;;10.53;100.00;95842.63;4997417;28;24545;-70
2022/05/02 07:10:02;;;;;;;11.35;9.15;;;;;;;10.85;100.00;95846.66;5000367;28;24444;-69
2022/05/02 07:12:31;;;;;;;9.45;8.55;;;;;;;11.16;100.00;95847.31;4993946;28;24519;-70
2022/05/02 07:15:05;;;;;;;10.07;8.95;;;;;;;11.21;100.00;95841.84;5012007;28;24436;-70
2022/05/02 07:17:44;;;;;;;9.30;8.30;;;;;;;11.10;100.00;95843.34;4995784;28;24445;-70
2022/05/02 07:20:17;;;;;;;8.75;7.85;;;;;;;10.96;100.00;95847.75;5006577;28;24440;-69
2022/05/02 07:23:03;;;;;;;9.07;7.65;;;;;;;11.11;100.00;95839.00;5010889;28;24490;-69
2022/05/02 07:25:30;;;;;;;9.95;8.32;;;;;;;11.09;100.00;95838.28;4993035;28;24847;-69
2022/05/02 07:28:11;;;;;;;9.10;8.00;;;;;;;11.28;100.00;95846.53;5020996;22;24924;-74
2022/05/02 07:30:39;;;;;;;9.37;8.23;;;;;;;11.66;100.00;95850.16;5012224;28;24432;-70
2022/05/02 07:33:10;;;;;;;10.20;8.57;;;;;;;11.89;100.00;95843.47;5011855;28;25012;-74
2022/05/02 07:35:38;;;;;;;10.73;8.50;;;;;;;11.90;100.00;95843.34;5010830;28;24455;-74
2022/05/02 07:38:06;;;;;;;9.68;8.77;;;;;;;12.37;100.00;95851.47;5015345;28;21254;-75
2022/05/02 07:40:34;;;;;;;11.82;8.45;;;;;;;12.82;100.00;95844.84;5012366;28;24436;-74
2022/05/02 07:43:03;;;;;;;9.60;8.60;;;;;;;13.02;100.00;95851.25;5010941;28;24439;-74
2022/05/02 07:45:31;;;;;;;10.65;8.90;;;;;;;13.11;98.03;95842.78;5012103;28;24433;-75
2022/05/02 07:48:00;;;;;;;10.40;9.27;;;;;;;13.43;100.00;95840.50;5012291;28;24443;-75
2022/05/02 07:50:27;;;;;;;13.00;10.60;;;;;;;13.85;96.82;95840.03;5011489;28;24467;-75
2022/05/02 07:52:56;;;;;;;13.90;9.37;;;;;;;14.16;96.25;95841.97;5011600;28;24577;-75
2022/05/02 07:55:24;;;;;;;13.50;10.60;;;;;;;13.89;92.46;95834.47;5011996;28;24448;-75
2022/05/02 07:57:52;;;;;;;10.48;9.38;;;;;;;14.01;92.59;95838.75;5012151;28;24467;-75
2022/05/02 08:00:19;;;;;;;10.27;9.25;;;;;;;14.27;93.26;95847.19;5011485;28;24539;-75
2022/05/02 08:02:47;;;;;;;12.02;9.25;;;;;;;14.04;91.81;95837.69;5011191;28;24440;-75
2022/05/02 08:05:19;;;;;;;14.45;8.70;;;;;;;13.83;94.62;95841.91;5012212;28;24449;-75
2022/05/02 08:07:46;;;;;;;10.25;9.10;;;;;;;13.69;95.57;95837.75;5012148;28;24997;-75
2022/05/02 08:10:45;;;;;;;12.20;9.20;;;;;;;13.59;98.66;95841.97;5011728;28;24432;-74
2022/05/02 08:13:36;;;;;;;10.55;9.45;;;;;;;13.76;94.88;95841.56;5010394;28;24440;-74
2022/05/02 08:16:05;;;;;;;10.43;9.43;;;;;;;13.65;93.65;95839.75;5011328;28;25007;-74
2022/05/02 08:19:03;;;;;;;18.10;13.27;;;;;;;14.41;88.80;95834.91;5012068;28;24445;-74
2022/05/02 08:21:34;;;;;;;12.38;11.18;;;;;;;14.88;90.30;95841.66;5011853;28;24520;-75
2022/05/02 08:27:37;;;;;;;16.00;13.13;;;;;;;15.67;78.02;95831.84;5006649;28;24467;-74
2022/05/02 08:30:10;;;;;;;13.18;11.15;;;;;;;15.39;79.89;95830.63;5011349;28;24436;-74
2022/05/02 08:32:43;;;;;;;14.23;11.88;;;;;;;15.49;83.57;95841.13;5011228;28;24456;-75
2022/05/02 08:35:12;;;;;;;14.00;12.60;;;;;;;15.67;84.00;95831.00;5011547;28;24444;-74
2022/05/02 08:38:09;;;;;;;15.65;11.73;;;;;;;15.32;79.81;95831.25;5011423;28;24511;-75
2022/05/02 08:41:05;;;;;;;12.18;11.00;;;;;;;15.34;82.75;95832.78;5011294;28;24842;-74
2022/05/02 08:44:00;;;;;;;14.82;10.88;;;;;;;14.85;81.54;95834.06;4996004;28;24437;-74
2022/05/02 08:47:06;;;;;;;13.18;11.35;;;;;;;14.64;81.89;95833.97;5010928;28;24993;-74
2022/05/02 08:49:56;;;;;;;13.18;11.45;;;;;;;14.48;78.23;95826.50;4995697;28;24436;-74
2022/05/02 08:52:48;;;;;;;13.05;10.93;;;;;;;14.64;86.66;95823.53;5011157;28;24455;-74
2022/05/02 08:56:02;;;;;;;12.40;10.32;;;;;;;15.40;83.15;95824.44;5010513;28;25066;-75
2022/05/02 08:58:56;;;;;;;10.97;9.87;;;;;;;15.05;78.47;95824.66;4974743;28;24510;-75
2022/05/02 09:02:11;;;;;;;12.85;11.05;;;;;;;14.56;82.46;95819.88;5010957;28;24826;-75
2022/05/02 09:05:31;;;;;;;11.70;10.15;;;;;;;14.29;82.19;95818.44;4950837;29;24457;-75
2022/05/02 09:08:35;;;;;;;12.57;10.45;;;;;;;14.27;83.66;95830.75;4942720;29;24533;-75
2022/05/02 09:11:32;;;;;;;13.00;11.00;;;;;;;14.20;83.65;95821.72;4999845;28;24919;-75
2022/05/02 09:14:50;;;;;;;11.00;9.70;;;;;;;14.63;83.97;95823.69;5009985;28;24520;-75
2022/05/02 09:17:49;;;;;;;12.18;10.88;;;;;;;14.87;80.92;95820.91;4930123;29;24482;-75
2022/05/02 09:20:38;;;;;;;11.85;9.77;;;;;;;15.07;79.32;95817.56;4922363;29;24511;-74
2022/05/02 09:23:44;;;;;;;12.17;9.70;;;;;;;15.37;85.12;95819.47;4994441;28;24519;-74
2022/05/02 09:26:51;;;;;;;11.68;9.57;;;;;;;15.91;75.82;95821.16;5008941;28;24437;-74
2022/05/02 09:29:47;;;;;;;16.37;11.07;;;;;;;16.45;81.06;95825.28;5010730;28;24468;-74
2022/05/02 09:32:18;;;;;;;14.77;9.77;;;;;;;15.91;75.69;95820.34;5001104;28;24548;-75
2022/05/02 09:34:54;;;;;;;11.60;10.37;;;;;;;15.67;77.56;95812.75;5009714;28;24436;-75
2022/05/02 09:37:23;;;;;;;13.52;9.75;;;;;;;15.48;82.72;95811.59;5010321;28;24873;-74
2022/05/02 09:40:00;;;;;;;11.63;9.98;;;;;;;15.19;79.08;95815.75;5023384;28;24486;-74
2022/05/02 09:42:40;;;;;;;12.90;10.70;;;;;;;15.01;80.93;95807.59;5010663;28;25060;-76
2022/05/02 09:51:51;;;;;;;10.37;9.37;;;;;;;15.04;78.69;95807.38;5005312;28;24980;-75
2022/05/02 09:57:21;;;;;;;9.90;8.75;;;;;;;15.13;81.37;95801.44;5010233;28;24464;-75
2022/05/02 10:01:06;;;;;;;10.60;8.88;;;;;;;15.11;78.17;95805.94;5009877;28;24999;-75
2022/05/02 10:02:47;;;;;;;11.20;8.23;;;;;;;15.52;85.35;95799.13;4996803;28;24421;-76
2022/05/02 10:05:22;;;;;;;8.93;8.02;;;;;;;15.46;77.44;95789.19;5010289;28;24440;-75
2022/05/02 10:07:57;;;;;;;10.48;8.48;;;;;;;15.59;76.70;95789.84;5009892;28;24452;-75
2022/05/02 10:10:31;;;;;;;11.32;8.48;;;;;;;15.46;76.37;95787.44;5010388;28;24495;-75
2022/05/02 10:13:10;;;;;;;12.37;8.77;;;;;;;15.51;81.00;95783.59;5009998;28;25043;-76
2022/05/02 10:15:54;;;;;;;10.33;9.00;;;;;;;15.44;76.76;95780.66;5014639;28;24483;-75
2022/05/02 10:18:47;;;;;;;10.85;8.45;;;;;;;15.28;75.98;95786.31;5010691;28;24539;-75
2022/05/02 10:21:30;;;;;;;10.00;9.00;;;;;;;15.29;74.78;95789.75;5010478;28;24441;-75
2022/05/02 10:24:28;;;;;;;11.65;8.57;;;;;;;15.36;78.46;95788.31;4996280;28;24444;-76
2022/05/02 10:27:04;;;;;;;13.20;10.20;;;;;;;15.14;74.45;95794.44;5009580;28;24478;-75
2022/05/02 10:29:52;;;;;;;12.88;9.52;;;;;;;15.16;77.22;95787.28;5009981;28;24432;-76
2022/05/02 10:32:30;;;;;;;12.40;8.95;;;;;;;15.13;79.93;95791.00;5009836;28;24452;-76
2022/05/02 10:35:00;;;;;;;9.43;8.47;;;;;;;15.41;75.83;95786.13;5009484;28;24806;-74
2022/05/02 10:37:31;;;;;;;12.02;9.63;;;;;;;16.01;79.80;95782.03;5009768;28;24515;-76
2022/05/02 10:40:08;;;;;;;11.30;9.88;;;;;;;16.38;78.90;95797.19;5009035;28;24552;-76
2022/05/02 10:42:35;;;;;;;11.80;9.68;;;;;;;16.73;75.78;95782.88;5009681;28;24440;-76
2022/05/02 10:45:05;;;;;;;11.38;9.32;;;;;;;16.77;67.79;95787.75;5009899;28;24483;-76
2022/05/02 10:47:41;;;;;;;13.20;9.80;;;;;;;16.65;73.72;95791.41;5009520;28;24447;-76
2022/05/02 10:50:17;;;;;;;11.43;9.88;;;;;;;16.42;75.74;95783.72;5009144;28;24527;-76
2022/05/02 10:53:03;;;;;;;11.48;10.00;;;;;;;16.14;72.20;95779.22;5013758;28;24587;-77
2022/05/02 10:55:34;;;;;;;10.07;9.10;;;;;;;16.08;72.24;95780.56;5011931;28;24440;-75
2022/05/02 10:58:02;;;;;;;11.48;10.27;;;;;;;16.35;75.55;95771.31;5013488;28;24424;-74
2022/05/02 11:00:29;;;;;;;11.13;9.88;;;;;;;16.72;70.06;95773.38;5016756;28;24439;-74
2022/05/02 11:03:13;;;;;;;9.55;8.60;;;;;;;16.90;75.43;95767.38;5032408;28;24411;-74
2022/05/02 11:05:52;;;;;;;9.55;8.13;;;;;;;16.51;74.61;95771.66;5032951;28;24423;-74
2022/05/02 11:08:24;;;;;;;12.00;8.70;;;;;;;16.13;74.50;95777.53;5032828;28;24431;-75
2022/05/02 11:10:58;;;;;;;10.27;8.37;;;;;;;15.77;67.04;95773.66;5033105;28;24948;-74
2022/05/02 11:13:35;;;;;;;7.68;6.88;;;;;;;15.60;67.93;95765.38;5032795;28;24470;-74
2022/05/02 11:16:10;;;;;;;8.38;6.70;;;;;;;15.66;70.33;95767.53;5032962;28;24435;-74
2022/05/02 11:21:42;;;;;;;8.60;7.10;;;;;;;15.78;70.33;95770.91;5032993;28;24411;-74
2022/05/02 11:24:37;;;;;;;8.33;6.37;;;;;;;16.07;71.78;95760.63;5032715;28;24519;-74
2022/05/02 11:27:19;;;;;;;6.93;5.90;;;;;;;16.29;67.15;95762.22;5032381;28;24448;-74
2022/05/02 11:29:57;;;;;;;6.75;5.53;;;;;;;16.25;73.61;95755.63;5032928;28;24821;-74
2022/05/02 11:32:30;;;;;;;6.37;5.77;;;;;;;16.47;66.86;95759.81;5032478;28;24501;-74
2022/05/02 11:35:05;;;;;;;5.15;4.70;;;;;;;17.01;75.03;95752.53;5032734;28;24508;-74
2022/05/02 11:37:37;;;;;;;5.80;5.18;;;;;;;16.69;65.05;95758.78;5016246;28;24460;-74
2022/05/02 11:40:08;;;;;;;5.25;4.75;;;;;;;16.69;67.20;95751.75;5013145;28;24427;-74
2022/05/02 11:42:41;;;;;;;9.15;5.18;;;;;;;16.63;67.07;95751.47;5012624;28;24435;-74
2022/05/02 11:45:10;;;;;;;7.00;5.30;;;;;;;16.92;67.78;95746.31;5012667;28;24511;-75
2022/05/02 11:48:07;;;;;;;5.77;4.50;;;;;;;16.78;67.71;95746.72;5012611;28;24468;-74
2022/05/02 11:50:44;;;;;;;6.57;5.13;;;;;;;16.67;70.76;95751.06;5012746;28;24436;-74
2022/05/02 11:53:14;;;;;;;6.25;5.13;;;;;;;16.86;67.13;95746.84;5011828;28;21271;-74
2022/05/02 11:55:42;;;;;;;8.63;5.05;;;;;;;16.27;61.28;95747.63;5012641;28;24428;-75
2022/05/02 11:58:20;;;;;;;5.07;4.43;;;;;;;16.41;61.43;95755.94;5012436;28;24436;-75
2022/05/02 12:00:53;;;;;;;5.05;4.50;;;;;;;16.15;60.60;95752.94;5012499;28;24420;-74
2022/05/02 12:03:24;;;;;;;4.93;4.40;;;;;;;16.07;60.50;95751.94;5012292;28;24502;-74
2022/05/02 12:05:52;;;;;;;4.85;4.38;;;;;;;16.57;63.83;95750.19;5012117;28;24984;-74
2022/05/02 12:08:25;;;;;;;5.07;4.45;;;;;;;16.50;68.50;95745.63;5012207;28;24421;-74
2022/05/02 12:11:05;;;;;;;6.57;5.28;;;;;;;16.24;61.81;95753.13;5012138;28;24420;-74
2022/05/02 12:13:36;;;;;;;6.43;4.72;;;;;;;16.30;66.37;95747.38;5012047;28;24547;-75
2022/05/02 12:16:04;;;;;;;7.35;4.78;;;;;;;16.51;70.16;95750.75;5012011;28;24996;-74
2022/05/02 12:18:46;;;;;;;6.45;4.85;;;;;;;16.33;61.79;95752.34;5012132;28;24424;-74
2022/05/02 12:21:22;;;;;;;5.95;4.90;;;;;;;16.19;63.84;95743.88;5011747;28;24973;-74
2022/05/02 12:23:50;;;;;;;5.15;4.53;;;;;;;16.57;65.47;95736.31;5011722;28;24404;-75
2022/05/02 12:26:19;;;;;;;5.53;4.30;;;;;;;16.71;65.29;95730.69;5011609;28;24992;-74